sensor_id;sensor_type;location;lat;lon;timestamp;temperature;humidity
11647;DHT22;5880;52.342;9.662;2022-09-27T00:01:10;14.50;67.00
11647;DHT22;5880;52.342;9.662;2022-09-27T00:03:38;14.40;67.70
11647;DHT22;5880;52.342;9.662;2022-09-27T00:06:25;14.50;67.00
11647;DHT22;5880;52.342;9.662;2022-09-27T00:08:53;14.50;68.00
11647;DHT22;5880;52.342;9.662;2022-09-27T00:11:28;14.50;67.00
11647;DHT22;5880;52.342;9.662;2022-09-27T00:14:02;14.50;67.60
11647;DHT22;5880;52.342;9.662;2022-09-27T00:16:31;14.50;67.10
11647;DHT22;5880;52.342;9.662;2022-09-27T00:19:03;14.50;67.30
11647;DHT22;5880;52.342;9.662;2022-09-27T00:21:31;14.50;67.30
11647;DHT22;5880;52.342;9.662;2022-09-27T00:23:57;14.40;67.10
11647;DHT22;5880;52.342;9.662;2022-09-27T00:26:24;14.50;67.30
11647;DHT22;5880;52.342;9.662;2022-09-27T00:28:51;14.50;67.30
11647;DHT22;5880;52.342;9.662;2022-09-27T00:31:21;14.50;67.40
11647;DHT22;5880;52.342;9.662;2022-09-27T00:33:53;14.40;67.40
11647;DHT22;5880;52.342;9.662;2022-09-27T00:36:21;14.40;67.20
11647;DHT22;5880;52.342;9.662;2022-09-27T00:38:48;14.80;67.60
11647;DHT22;5880;52.342;9.662;2022-09-27T00:41:23;14.30;67.40
11647;DHT22;5880;52.342;9.662;2022-09-27T00:43:56;14.20;67.70
11647;DHT22;5880;52.342;9.662;2022-09-27T00:46:46;14.40;67.50
11647;DHT22;5880;52.342;9.662;2022-09-27T00:49:20;14.40;68.40
11647;DHT22;5880;52.342;9.662;2022-09-27T00:51:54;14.40;67.70
11647;DHT22;5880;52.342;9.662;2022-09-27T00:54:26;14.40;67.70
11647;DHT22;5880;52.342;9.662;2022-09-27T00:56:53;14.80;67.80
11647;DHT22;5880;52.342;9.662;2022-09-27T00:59:34;14.40;67.50
11647;DHT22;5880;52.342;9.662;2022-09-27T01:02:05;14.70;68.70
11647;DHT22;5880;52.342;9.662;2022-09-27T01:04:32;14.30;67.60
11647;DHT22;5880;52.342;9.662;2022-09-27T01:07:01;14.30;67.60
11647;DHT22;5880;52.342;9.662;2022-09-27T01:09:27;14.90;68.10
11647;DHT22;5880;52.342;9.662;2022-09-27T01:12:00;14.70;68.10
11647;DHT22;5880;52.342;9.662;2022-09-27T01:14:52;14.30;68.30
11647;DHT22;5880;52.342;9.662;2022-09-27T01:20:36;14.20;68.30
11647;DHT22;5880;52.342;9.662;2022-09-27T01:26:44;14.40;68.80
11647;DHT22;5880;52.342;9.662;2022-09-27T01:29:59;14.40;69.00
11647;DHT22;5880;52.342;9.662;2022-09-27T01:32:52;14.40;68.60
11647;DHT22;5880;52.342;9.662;2022-09-27T01:35:58;14.80;68.90
11647;DHT22;5880;52.342;9.662;2022-09-27T01:38:56;14.50;68.90
11647;DHT22;5880;52.342;9.662;2022-09-27T01:45:21;14.50;68.90
11647;DHT22;5880;52.342;9.662;2022-09-27T01:48:02;14.50;69.00
11647;DHT22;5880;52.342;9.662;2022-09-27T01:50:44;14.50;68.80
11647;DHT22;5880;52.342;9.662;2022-09-27T01:53:27;14.50;68.50
11647;DHT22;5880;52.342;9.662;2022-09-27T01:56:01;14.40;68.30
11647;DHT22;5880;52.342;9.662;2022-09-27T01:58:41;14.50;68.40
11647;DHT22;5880;52.342;9.662;2022-09-27T02:01:15;14.40;68.70
11647;DHT22;5880;52.342;9.662;2022-09-27T02:03:47;14.40;68.30
11647;DHT22;5880;52.342;9.662;2022-09-27T02:06:20;14.50;68.60
11647;DHT22;5880;52.342;9.662;2022-09-27T02:09:07;14.50;68.60
11647;DHT22;5880;52.342;9.662;2022-09-27T02:11:40;14.50;68.90
11647;DHT22;5880;52.342;9.662;2022-09-27T02:20:14;14.50;69.20
11647;DHT22;5880;52.342;9.662;2022-09-27T02:22:53;14.50;69.40
11647;DHT22;5880;52.342;9.662;2022-09-27T02:25:57;14.50;68.90
11647;DHT22;5880;52.342;9.662;2022-09-27T02:28:54;14.50;69.10
11647;DHT22;5880;52.342;9.662;2022-09-27T02:31:25;14.50;69.50
11647;DHT22;5880;52.342;9.662;2022-09-27T02:33:54;14.50;68.40
11647;DHT22;5880;52.342;9.662;2022-09-27T02:36:26;14.50;68.80
11647;DHT22;5880;52.342;9.662;2022-09-27T02:38:53;14.40;68.70
11647;DHT22;5880;52.342;9.662;2022-09-27T02:41:20;14.40;68.60
11647;DHT22;5880;52.342;9.662;2022-09-27T02:43:51;14.50;68.80
11647;DHT22;5880;52.342;9.662;2022-09-27T02:46:39;14.50;69.00
11647;DHT22;5880;52.342;9.662;2022-09-27T02:52:08;14.50;69.80
11647;DHT22;5880;52.342;9.662;2022-09-27T03:00:48;14.50;69.40
11647;DHT22;5880;52.342;9.662;2022-09-27T03:06:44;14.50;69.10
11647;DHT22;5880;52.342;9.662;2022-09-27T03:09:18;14.70;69.00
11647;DHT22;5880;52.342;9.662;2022-09-27T03:11:45;14.50;69.30
11647;DHT22;5880;52.342;9.662;2022-09-27T03:14:11;14.50;68.90
11647;DHT22;5880;52.342;9.662;2022-09-27T03:16:38;14.50;69.10
11647;DHT22;5880;52.342;9.662;2022-09-27T03:19:03;14.50;69.20
11647;DHT22;5880;52.342;9.662;2022-09-27T03:21:29;14.50;69.30
11647;DHT22;5880;52.342;9.662;2022-09-27T03:23:55;14.50;69.30
11647;DHT22;5880;52.342;9.662;2022-09-27T03:26:21;14.50;69.30
11647;DHT22;5880;52.342;9.662;2022-09-27T03:28:48;14.60;69.30
11647;DHT22;5880;52.342;9.662;2022-09-27T03:31:14;14.50;69.30
11647;DHT22;5880;52.342;9.662;2022-09-27T03:33:40;14.60;69.30
11647;DHT22;5880;52.342;9.662;2022-09-27T03:36:06;14.60;69.10
11647;DHT22;5880;52.342;9.662;2022-09-27T03:38:32;14.60;69.20
11647;DHT22;5880;52.342;9.662;2022-09-27T03:40:58;14.60;69.20
11647;DHT22;5880;52.342;9.662;2022-09-27T03:43:24;14.60;69.20
11647;DHT22;5880;52.342;9.662;2022-09-27T03:45:49;14.60;69.30
11647;DHT22;5880;52.342;9.662;2022-09-27T03:48:15;14.60;69.20
11647;DHT22;5880;52.342;9.662;2022-09-27T03:50:41;14.60;69.30
11647;DHT22;5880;52.342;9.662;2022-09-27T03:53:07;14.60;69.30
11647;DHT22;5880;52.342;9.662;2022-09-27T03:55:33;14.60;69.40
11647;DHT22;5880;52.342;9.662;2022-09-27T03:58:00;14.60;69.40
11647;DHT22;5880;52.342;9.662;2022-09-27T04:00:26;14.30;69.20
11647;DHT22;5880;52.342;9.662;2022-09-27T04:02:53;14.60;69.30
11647;DHT22;5880;52.342;9.662;2022-09-27T04:05:18;14.60;69.30
11647;DHT22;5880;52.342;9.662;2022-09-27T04:07:47;14.60;69.40
11647;DHT22;5880;52.342;9.662;2022-09-27T04:10:14;14.50;69.70
11647;DHT22;5880;52.342;9.662;2022-09-27T04:12:41;14.50;69.30
11647;DHT22;5880;52.342;9.662;2022-09-27T04:15:07;14.50;69.30
11647;DHT22;5880;52.342;9.662;2022-09-27T04:17:34;14.50;69.50
11647;DHT22;5880;52.342;9.662;2022-09-27T04:20:00;14.50;69.50
11647;DHT22;5880;52.342;9.662;2022-09-27T04:22:28;14.50;69.50
11647;DHT22;5880;52.342;9.662;2022-09-27T04:24:54;14.50;69.50
11647;DHT22;5880;52.342;9.662;2022-09-27T04:27:20;14.50;69.50
11647;DHT22;5880;52.342;9.662;2022-09-27T04:29:47;14.50;69.50
11647;DHT22;5880;52.342;9.662;2022-09-27T04:32:13;14.50;69.60
11647;DHT22;5880;52.342;9.662;2022-09-27T04:34:39;14.40;69.50
11647;DHT22;5880;52.342;9.662;2022-09-27T04:37:25;14.40;70.20
11647;DHT22;5880;52.342;9.662;2022-09-27T04:39:51;14.40;69.40
11647;DHT22;5880;52.342;9.662;2022-09-27T04:42:17;14.40;69.40
11647;DHT22;5880;52.342;9.662;2022-09-27T04:44:44;14.40;69.50
11647;DHT22;5880;52.342;9.662;2022-09-27T04:47:09;14.40;69.50
11647;DHT22;5880;52.342;9.662;2022-09-27T04:49:35;14.40;69.40
11647;DHT22;5880;52.342;9.662;2022-09-27T04:52:03;14.40;69.40
11647;DHT22;5880;52.342;9.662;2022-09-27T04:54:30;14.30;69.50
11647;DHT22;5880;52.342;9.662;2022-09-27T04:56:56;14.30;69.50
11647;DHT22;5880;52.342;9.662;2022-09-27T04:59:22;14.30;69.50
11647;DHT22;5880;52.342;9.662;2022-09-27T05:01:48;14.30;69.50
11647;DHT22;5880;52.342;9.662;2022-09-27T05:04:14;14.20;69.50
11647;DHT22;5880;52.342;9.662;2022-09-27T05:06:40;14.50;69.70
11647;DHT22;5880;52.342;9.662;2022-09-27T05:09:06;14.30;69.60
11647;DHT22;5880;52.342;9.662;2022-09-27T05:11:31;14.30;69.60
11647;DHT22;5880;52.342;9.662;2022-09-27T05:13:57;14.30;69.70
11647;DHT22;5880;52.342;9.662;2022-09-27T05:16:23;14.30;69.80
11647;DHT22;5880;52.342;9.662;2022-09-27T05:18:49;14.30;69.80
11647;DHT22;5880;52.342;9.662;2022-09-27T05:21:15;14.30;69.90
11647;DHT22;5880;52.342;9.662;2022-09-27T05:23:40;14.30;69.80
11647;DHT22;5880;52.342;9.662;2022-09-27T05:26:06;14.30;69.80
11647;DHT22;5880;52.342;9.662;2022-09-27T05:28:33;14.30;69.90
11647;DHT22;5880;52.342;9.662;2022-09-27T05:31:01;14.30;69.90
11647;DHT22;5880;52.342;9.662;2022-09-27T05:33:27;14.30;69.80
11647;DHT22;5880;52.342;9.662;2022-09-27T05:35:54;14.30;69.80
11647;DHT22;5880;52.342;9.662;2022-09-27T05:38:21;14.30;69.80
11647;DHT22;5880;52.342;9.662;2022-09-27T05:40:47;14.30;69.80
11647;DHT22;5880;52.342;9.662;2022-09-27T05:43:15;14.30;69.80
11647;DHT22;5880;52.342;9.662;2022-09-27T05:45:42;14.30;69.70
11647;DHT22;5880;52.342;9.662;2022-09-27T05:48:09;14.70;70.00
11647;DHT22;5880;52.342;9.662;2022-09-27T05:50:36;14.30;69.90
11647;DHT22;5880;52.342;9.662;2022-09-27T05:53:02;14.30;69.90
11647;DHT22;5880;52.342;9.662;2022-09-27T05:55:28;14.30;69.90
11647;DHT22;5880;52.342;9.662;2022-09-27T05:57:55;14.30;69.80
11647;DHT22;5880;52.342;9.662;2022-09-27T06:00:31;14.20;69.80
11647;DHT22;5880;52.342;9.662;2022-09-27T06:03:00;14.30;70.00
11647;DHT22;5880;52.342;9.662;2022-09-27T06:05:29;14.20;69.80
11647;DHT22;5880;52.342;9.662;2022-09-27T06:08:00;14.20;69.90
11647;DHT22;5880;52.342;9.662;2022-09-27T06:10:30;14.20;69.90
11647;DHT22;5880;52.342;9.662;2022-09-27T06:13:01;14.20;69.80
11647;DHT22;5880;52.342;9.662;2022-09-27T06:15:32;14.20;70.20
11647;DHT22;5880;52.342;9.662;2022-09-27T06:18:07;14.30;70.00
11647;DHT22;5880;52.342;9.662;2022-09-27T06:20:35;14.20;70.20
11647;DHT22;5880;52.342;9.662;2022-09-27T06:23:08;14.10;69.70
11647;DHT22;5880;52.342;9.662;2022-09-27T06:25:35;14.10;70.10
11647;DHT22;5880;52.342;9.662;2022-09-27T06:28:02;14.10;69.70
11647;DHT22;5880;52.342;9.662;2022-09-27T06:30:29;14.10;69.80
11647;DHT22;5880;52.342;9.662;2022-09-27T06:33:00;14.10;69.80
11647;DHT22;5880;52.342;9.662;2022-09-27T06:35:27;14.10;70.00
11647;DHT22;5880;52.342;9.662;2022-09-27T06:37:55;14.00;69.90
11647;DHT22;5880;52.342;9.662;2022-09-27T06:40:22;14.20;70.00
11647;DHT22;5880;52.342;9.662;2022-09-27T06:42:51;14.20;70.20
11647;DHT22;5880;52.342;9.662;2022-09-27T06:45:17;14.00;70.20
11647;DHT22;5880;52.342;9.662;2022-09-27T06:47:43;14.00;70.30
11647;DHT22;5880;52.342;9.662;2022-09-27T06:50:08;14.00;70.40
11647;DHT22;5880;52.342;9.662;2022-09-27T06:52:35;14.10;70.70
11647;DHT22;5880;52.342;9.662;2022-09-27T06:55:02;14.10;70.40
11647;DHT22;5880;52.342;9.662;2022-09-27T06:57:29;14.10;70.50
11647;DHT22;5880;52.342;9.662;2022-09-27T07:00:14;14.10;70.50
11647;DHT22;5880;52.342;9.662;2022-09-27T07:02:52;14.10;70.40
11647;DHT22;5880;52.342;9.662;2022-09-27T07:05:19;14.10;70.40
11647;DHT22;5880;52.342;9.662;2022-09-27T07:07:45;14.10;70.40
11647;DHT22;5880;52.342;9.662;2022-09-27T07:10:13;14.10;70.40
11647;DHT22;5880;52.342;9.662;2022-09-27T07:12:39;14.10;70.40
11647;DHT22;5880;52.342;9.662;2022-09-27T07:15:06;14.10;70.40
11647;DHT22;5880;52.342;9.662;2022-09-27T07:17:31;14.10;70.40
11647;DHT22;5880;52.342;9.662;2022-09-27T07:19:57;14.10;70.40
11647;DHT22;5880;52.342;9.662;2022-09-27T07:22:23;14.10;71.10
11647;DHT22;5880;52.342;9.662;2022-09-27T07:24:48;14.10;70.40
11647;DHT22;5880;52.342;9.662;2022-09-27T07:27:14;14.10;70.40
11647;DHT22;5880;52.342;9.662;2022-09-27T07:29:40;14.10;70.40
11647;DHT22;5880;52.342;9.662;2022-09-27T07:32:06;14.10;70.40
11647;DHT22;5880;52.342;9.662;2022-09-27T07:34:35;14.10;70.40
11647;DHT22;5880;52.342;9.662;2022-09-27T07:37:01;14.10;70.60
11647;DHT22;5880;52.342;9.662;2022-09-27T07:39:30;14.20;70.40
11647;DHT22;5880;52.342;9.662;2022-09-27T07:41:56;14.10;70.40
11647;DHT22;5880;52.342;9.662;2022-09-27T07:44:23;14.10;70.40
11647;DHT22;5880;52.342;9.662;2022-09-27T07:46:48;14.10;70.40
11647;DHT22;5880;52.342;9.662;2022-09-27T07:49:14;14.10;70.40
11647;DHT22;5880;52.342;9.662;2022-09-27T07:51:40;13.90;70.20
11647;DHT22;5880;52.342;9.662;2022-09-27T07:54:05;14.10;70.30
11647;DHT22;5880;52.342;9.662;2022-09-27T07:56:31;14.10;70.40
11647;DHT22;5880;52.342;9.662;2022-09-27T07:58:57;14.10;70.50
11647;DHT22;5880;52.342;9.662;2022-09-27T08:01:23;14.10;70.50
11647;DHT22;5880;52.342;9.662;2022-09-27T08:03:49;14.10;70.40
11647;DHT22;5880;52.342;9.662;2022-09-27T08:06:15;14.10;70.30
11647;DHT22;5880;52.342;9.662;2022-09-27T08:08:42;14.30;70.40
11647;DHT22;5880;52.342;9.662;2022-09-27T08:11:15;14.10;70.30
11647;DHT22;5880;52.342;9.662;2022-09-27T08:13:44;14.10;70.40
11647;DHT22;5880;52.342;9.662;2022-09-27T08:16:11;14.20;70.40
11647;DHT22;5880;52.342;9.662;2022-09-27T08:18:38;14.40;70.60
11647;DHT22;5880;52.342;9.662;2022-09-27T08:21:04;14.10;70.40
11647;DHT22;5880;52.342;9.662;2022-09-27T08:23:30;14.10;70.40
11647;DHT22;5880;52.342;9.662;2022-09-27T08:25:56;14.10;70.40
11647;DHT22;5880;52.342;9.662;2022-09-27T08:28:24;14.10;70.40
11647;DHT22;5880;52.342;9.662;2022-09-27T08:30:51;14.10;70.40
11647;DHT22;5880;52.342;9.662;2022-09-27T08:33:18;14.10;70.40
11647;DHT22;5880;52.342;9.662;2022-09-27T08:35:44;14.30;70.50
11647;DHT22;5880;52.342;9.662;2022-09-27T08:38:10;14.20;70.50
11647;DHT22;5880;52.342;9.662;2022-09-27T08:40:53;14.20;70.70
11647;DHT22;5880;52.342;9.662;2022-09-27T08:43:58;14.20;71.10
11647;DHT22;5880;52.342;9.662;2022-09-27T08:46:46;14.20;71.40
11647;DHT22;5880;52.342;9.662;2022-09-27T08:49:37;14.30;71.50
11647;DHT22;5880;52.342;9.662;2022-09-27T08:52:22;14.30;71.70
11647;DHT22;5880;52.342;9.662;2022-09-27T08:55:21;14.40;71.60
11647;DHT22;5880;52.342;9.662;2022-09-27T08:57:52;14.50;71.70
11647;DHT22;5880;52.342;9.662;2022-09-27T09:00:21;14.50;71.50
11647;DHT22;5880;52.342;9.662;2022-09-27T09:02:47;14.60;71.90
11647;DHT22;5880;52.342;9.662;2022-09-27T09:05:20;14.60;70.90
11647;DHT22;5880;52.342;9.662;2022-09-27T09:08:22;14.70;71.10
11647;DHT22;5880;52.342;9.662;2022-09-27T09:14:36;14.70;71.40
11647;DHT22;5880;52.342;9.662;2022-09-27T09:29:05;14.90;70.50
11647;DHT22;5880;52.342;9.662;2022-09-27T09:32:01;15.00;70.40
11647;DHT22;5880;52.342;9.662;2022-09-27T09:34:55;15.00;70.40
11647;DHT22;5880;52.342;9.662;2022-09-27T09:37:35;14.90;70.20
11647;DHT22;5880;52.342;9.662;2022-09-27T09:40:18;14.90;70.30
11647;DHT22;5880;52.342;9.662;2022-09-27T09:43:07;14.90;70.50
11647;DHT22;5880;52.342;9.662;2022-09-27T09:45:44;14.90;70.80
11647;DHT22;5880;52.342;9.662;2022-09-27T09:51:18;15.00;70.90
11647;DHT22;5880;52.342;9.662;2022-09-27T09:57:10;15.10;71.10
11647;DHT22;5880;52.342;9.662;2022-09-27T09:59:44;15.10;71.00
11647;DHT22;5880;52.342;9.662;2022-09-27T10:02:29;15.20;70.90
11647;DHT22;5880;52.342;9.662;2022-09-27T10:04:59;15.30;71.30
11647;DHT22;5880;52.342;9.662;2022-09-27T10:07:26;15.40;72.70
11647;DHT22;5880;52.342;9.662;2022-09-27T10:09:56;15.60;72.90
11647;DHT22;5880;52.342;9.662;2022-09-27T10:12:25;15.80;72.50
11647;DHT22;5880;52.342;9.662;2022-09-27T10:14:52;15.90;72.10
11647;DHT22;5880;52.342;9.662;2022-09-27T10:17:23;16.00;71.50
11647;DHT22;5880;52.342;9.662;2022-09-27T10:19:55;16.10;71.00
11647;DHT22;5880;52.342;9.662;2022-09-27T10:22:30;16.20;70.40
11647;DHT22;5880;52.342;9.662;2022-09-27T10:25:09;16.30;70.70
11647;DHT22;5880;52.342;9.662;2022-09-27T10:27:43;16.30;69.90
11647;DHT22;5880;52.342;9.662;2022-09-27T10:30:30;16.30;69.40
11647;DHT22;5880;52.342;9.662;2022-09-27T10:33:02;16.40;68.30
11647;DHT22;5880;52.342;9.662;2022-09-27T10:35:45;16.30;67.80
11647;DHT22;5880;52.342;9.662;2022-09-27T10:38:40;16.20;67.10
11647;DHT22;5880;52.342;9.662;2022-09-27T10:41:34;16.10;66.70
11647;DHT22;5880;52.342;9.662;2022-09-27T10:44:25;16.00;66.60
11647;DHT22;5880;52.342;9.662;2022-09-27T10:47:08;15.80;66.70
11647;DHT22;5880;52.342;9.662;2022-09-27T10:49:39;15.60;66.60
11647;DHT22;5880;52.342;9.662;2022-09-27T10:52:13;15.50;67.10
11647;DHT22;5880;52.342;9.662;2022-09-27T10:54:52;15.30;67.50
11647;DHT22;5880;52.342;9.662;2022-09-27T10:57:21;15.20;68.40
11647;DHT22;5880;52.342;9.662;2022-09-27T10:59:54;15.20;68.90
11647;DHT22;5880;52.342;9.662;2022-09-27T11:02:34;15.20;69.70
11647;DHT22;5880;52.342;9.662;2022-09-27T11:05:30;15.20;70.00
11647;DHT22;5880;52.342;9.662;2022-09-27T11:08:00;15.20;70.70
11647;DHT22;5880;52.342;9.662;2022-09-27T11:10:30;15.30;70.30
11647;DHT22;5880;52.342;9.662;2022-09-27T11:13:23;15.30;70.70
11647;DHT22;5880;52.342;9.662;2022-09-27T11:19:18;15.50;72.40
11647;DHT22;5880;52.342;9.662;2022-09-27T11:34:34;16.30;70.00
11647;DHT22;5880;52.342;9.662;2022-09-27T11:37:37;16.40;68.70
11647;DHT22;5880;52.342;9.662;2022-09-27T11:40:31;16.30;68.10
11647;DHT22;5880;52.342;9.662;2022-09-27T11:43:30;16.20;66.80
11647;DHT22;5880;52.342;9.662;2022-09-27T12:00:36;15.00;67.30
11647;DHT22;5880;52.342;9.662;2022-09-27T12:06:44;14.80;67.90
11647;DHT22;5880;52.342;9.662;2022-09-27T12:09:22;14.60;67.40
11647;DHT22;5880;52.342;9.662;2022-09-27T12:12:23;14.50;67.10
11647;DHT22;5880;52.342;9.662;2022-09-27T12:15:02;14.40;67.10
11647;DHT22;5880;52.342;9.662;2022-09-27T12:17:38;14.20;67.20
11647;DHT22;5880;52.342;9.662;2022-09-27T12:20:23;14.10;67.50
11647;DHT22;5880;52.342;9.662;2022-09-27T12:23:20;14.00;67.60
11647;DHT22;5880;52.342;9.662;2022-09-27T12:25:54;13.90;68.00
11647;DHT22;5880;52.342;9.662;2022-09-27T12:28:56;13.80;67.90
11647;DHT22;5880;52.342;9.662;2022-09-27T12:37:20;13.60;68.60
11647;DHT22;5880;52.342;9.662;2022-09-27T12:40:02;13.60;68.60
11647;DHT22;5880;52.342;9.662;2022-09-27T12:42:39;13.50;69.10
11647;DHT22;5880;52.342;9.662;2022-09-27T12:45:15;13.50;69.10
11647;DHT22;5880;52.342;9.662;2022-09-27T12:48:10;13.50;69.30
11647;DHT22;5880;52.342;9.662;2022-09-27T12:51:13;13.50;69.00
11647;DHT22;5880;52.342;9.662;2022-09-27T12:57:06;13.50;69.60
11647;DHT22;5880;52.342;9.662;2022-09-27T13:00:15;13.50;70.00
11647;DHT22;5880;52.342;9.662;2022-09-27T13:12:09;13.60;69.80
11647;DHT22;5880;52.342;9.662;2022-09-27T13:17:32;13.60;69.70
11647;DHT22;5880;52.342;9.662;2022-09-27T13:25:52;13.60;69.70
11647;DHT22;5880;52.342;9.662;2022-09-27T13:31:09;13.60;70.00
11647;DHT22;5880;52.342;9.662;2022-09-27T13:33:47;13.60;69.70
11647;DHT22;5880;52.342;9.662;2022-09-27T13:47:31;13.70;69.80
11647;DHT22;5880;52.342;9.662;2022-09-27T13:50:21;13.80;69.90
11647;DHT22;5880;52.342;9.662;2022-09-27T13:55:47;13.80;69.90
11647;DHT22;5880;52.342;9.662;2022-09-27T14:00:46;13.80;70.20
11647;DHT22;5880;52.342;9.662;2022-09-27T14:03:17;13.80;70.30
11647;DHT22;5880;52.342;9.662;2022-09-27T14:05:56;13.90;70.60
11647;DHT22;5880;52.342;9.662;2022-09-27T14:08:45;13.90;70.40
11647;DHT22;5880;52.342;9.662;2022-09-27T14:11:29;14.00;70.80
11647;DHT22;5880;52.342;9.662;2022-09-27T14:13:59;14.00;70.50
11647;DHT22;5880;52.342;9.662;2022-09-27T14:16:32;14.10;70.50
11647;DHT22;5880;52.342;9.662;2022-09-27T14:19:00;14.10;70.30
11647;DHT22;5880;52.342;9.662;2022-09-27T14:21:35;14.20;70.10
11647;DHT22;5880;52.342;9.662;2022-09-27T14:27:09;14.30;70.00
11647;DHT22;5880;52.342;9.662;2022-09-27T14:29:53;14.30;70.00
11647;DHT22;5880;52.342;9.662;2022-09-27T14:32:29;14.30;69.80
11647;DHT22;5880;52.342;9.662;2022-09-27T14:35:18;14.30;70.10
11647;DHT22;5880;52.342;9.662;2022-09-27T14:38:13;14.40;70.20
11647;DHT22;5880;52.342;9.662;2022-09-27T14:41:01;14.40;69.90
11647;DHT22;5880;52.342;9.662;2022-09-27T14:43:28;14.40;69.10
11647;DHT22;5880;52.342;9.662;2022-09-27T14:45:58;14.30;68.60
11647;DHT22;5880;52.342;9.662;2022-09-27T14:51:01;14.20;68.10
11647;DHT22;5880;52.342;9.662;2022-09-27T14:53:32;14.10;68.10
11647;DHT22;5880;52.342;9.662;2022-09-27T14:56:00;14.00;68.00
11647;DHT22;5880;52.342;9.662;2022-09-27T14:58:28;13.90;68.00
11647;DHT22;5880;52.342;9.662;2022-09-27T15:00:54;13.80;67.90
11647;DHT22;5880;52.342;9.662;2022-09-27T15:03:29;13.70;68.20
11647;DHT22;5880;52.342;9.662;2022-09-27T15:05:57;13.60;68.50
11647;DHT22;5880;52.342;9.662;2022-09-27T15:08:26;13.60;68.60
11647;DHT22;5880;52.342;9.662;2022-09-27T15:10:55;13.50;68.60
11647;DHT22;5880;52.342;9.662;2022-09-27T15:13:23;13.40;68.50
11647;DHT22;5880;52.342;9.662;2022-09-27T15:15:51;13.40;68.50
11647;DHT22;5880;52.342;9.662;2022-09-27T15:18:32;13.40;68.50
11647;DHT22;5880;52.342;9.662;2022-09-27T15:21:32;13.30;68.90
11647;DHT22;5880;52.342;9.662;2022-09-27T15:23:59;13.30;68.90
11647;DHT22;5880;52.342;9.662;2022-09-27T15:29:06;13.20;69.10
11647;DHT22;5880;52.342;9.662;2022-09-27T15:31:43;13.20;69.10
11647;DHT22;5880;52.342;9.662;2022-09-27T15:34:16;13.20;69.20
11647;DHT22;5880;52.342;9.662;2022-09-27T15:39:20;13.20;69.50
11647;DHT22;5880;52.342;9.662;2022-09-27T15:42:01;13.20;69.60
11647;DHT22;5880;52.342;9.662;2022-09-27T15:47:38;13.30;69.90
11647;DHT22;5880;52.342;9.662;2022-09-27T15:52:51;13.30;70.00
11647;DHT22;5880;52.342;9.662;2022-09-27T15:55:25;13.30;69.80
11647;DHT22;5880;52.342;9.662;2022-09-27T16:00:55;13.30;69.80
11647;DHT22;5880;52.342;9.662;2022-09-27T16:03:24;13.30;69.80
11647;DHT22;5880;52.342;9.662;2022-09-27T16:05:52;13.40;69.90
11647;DHT22;5880;52.342;9.662;2022-09-27T16:08:21;13.40;70.00
11647;DHT22;5880;52.342;9.662;2022-09-27T16:10:50;13.40;70.00
11647;DHT22;5880;52.342;9.662;2022-09-27T16:13:19;13.50;70.30
11647;DHT22;5880;52.342;9.662;2022-09-27T16:15:46;13.50;70.30
11647;DHT22;5880;52.342;9.662;2022-09-27T16:18:13;13.60;70.30
11647;DHT22;5880;52.342;9.662;2022-09-27T16:20:39;13.60;70.40
11647;DHT22;5880;52.342;9.662;2022-09-27T16:23:05;13.60;70.40
11647;DHT22;5880;52.342;9.662;2022-09-27T16:25:31;13.70;70.40
11647;DHT22;5880;52.342;9.662;2022-09-27T16:27:58;13.70;70.30
11647;DHT22;5880;52.342;9.662;2022-09-27T16:30:26;13.70;70.20
11647;DHT22;5880;52.342;9.662;2022-09-27T16:32:52;13.70;70.00
11647;DHT22;5880;52.342;9.662;2022-09-27T16:35:19;13.70;70.00
11647;DHT22;5880;52.342;9.662;2022-09-27T16:37:45;13.80;70.70
11647;DHT22;5880;52.342;9.662;2022-09-27T16:40:12;13.80;69.90
11647;DHT22;5880;52.342;9.662;2022-09-27T16:42:39;13.80;69.90
11647;DHT22;5880;52.342;9.662;2022-09-27T16:45:06;13.80;69.90
11647;DHT22;5880;52.342;9.662;2022-09-27T16:47:32;13.80;69.80
11647;DHT22;5880;52.342;9.662;2022-09-27T16:49:58;13.80;69.90
11647;DHT22;5880;52.342;9.662;2022-09-27T16:52:42;13.80;69.90
11647;DHT22;5880;52.342;9.662;2022-09-27T16:55:12;13.80;70.00
11647;DHT22;5880;52.342;9.662;2022-09-27T16:57:38;13.80;70.10
11647;DHT22;5880;52.342;9.662;2022-09-27T17:00:05;13.80;70.20
11647;DHT22;5880;52.342;9.662;2022-09-27T17:02:31;13.80;70.30
11647;DHT22;5880;52.342;9.662;2022-09-27T17:04:57;13.90;70.30
11647;DHT22;5880;52.342;9.662;2022-09-27T17:07:23;13.90;70.20
11647;DHT22;5880;52.342;9.662;2022-09-27T17:09:49;13.80;70.00
11647;DHT22;5880;52.342;9.662;2022-09-27T17:12:15;13.90;70.00
11647;DHT22;5880;52.342;9.662;2022-09-27T17:14:41;13.80;69.80
11647;DHT22;5880;52.342;9.662;2022-09-27T17:17:07;13.80;69.60
11647;DHT22;5880;52.342;9.662;2022-09-27T17:19:33;13.70;69.50
11647;DHT22;5880;52.342;9.662;2022-09-27T17:21:59;13.70;69.50
11647;DHT22;5880;52.342;9.662;2022-09-27T17:24:26;13.70;69.60
11647;DHT22;5880;52.342;9.662;2022-09-27T17:26:51;13.70;69.70
11647;DHT22;5880;52.342;9.662;2022-09-27T17:29:17;13.70;69.80
11647;DHT22;5880;52.342;9.662;2022-09-27T17:31:43;13.70;69.80
11647;DHT22;5880;52.342;9.662;2022-09-27T17:34:11;13.60;69.80
11647;DHT22;5880;52.342;9.662;2022-09-27T17:36:43;13.60;69.90
11647;DHT22;5880;52.342;9.662;2022-09-27T17:39:14;13.60;70.10
11647;DHT22;5880;52.342;9.662;2022-09-27T17:41:41;13.60;70.00
11647;DHT22;5880;52.342;9.662;2022-09-27T17:44:11;13.60;69.90
11647;DHT22;5880;52.342;9.662;2022-09-27T17:46:39;13.60;70.00
11647;DHT22;5880;52.342;9.662;2022-09-27T17:49:06;13.60;69.90
11647;DHT22;5880;52.342;9.662;2022-09-27T17:51:51;13.60;69.90
11647;DHT22;5880;52.342;9.662;2022-09-27T17:54:19;13.60;70.00
11647;DHT22;5880;52.342;9.662;2022-09-27T17:56:47;13.60;70.00
11647;DHT22;5880;52.342;9.662;2022-09-27T17:59:15;13.60;70.00
11647;DHT22;5880;52.342;9.662;2022-09-27T18:01:44;13.60;70.00
11647;DHT22;5880;52.342;9.662;2022-09-27T18:04:13;13.50;70.10
11647;DHT22;5880;52.342;9.662;2022-09-27T18:06:41;13.50;70.20
11647;DHT22;5880;52.342;9.662;2022-09-27T18:09:12;13.50;70.20
11647;DHT22;5880;52.342;9.662;2022-09-27T18:11:39;13.60;70.20
11647;DHT22;5880;52.342;9.662;2022-09-27T18:14:06;13.50;70.20
11647;DHT22;5880;52.342;9.662;2022-09-27T18:16:35;13.50;70.20
11647;DHT22;5880;52.342;9.662;2022-09-27T18:19:05;13.60;70.10
11647;DHT22;5880;52.342;9.662;2022-09-27T18:21:32;13.50;70.20
11647;DHT22;5880;52.342;9.662;2022-09-27T18:24:00;13.50;70.20
11647;DHT22;5880;52.342;9.662;2022-09-27T18:26:31;13.50;70.30
11647;DHT22;5880;52.342;9.662;2022-09-27T18:29:03;13.60;70.30
11647;DHT22;5880;52.342;9.662;2022-09-27T18:31:31;13.50;70.30
11647;DHT22;5880;52.342;9.662;2022-09-27T18:33:56;13.60;70.10
11647;DHT22;5880;52.342;9.662;2022-09-27T18:36:24;13.60;70.00
11647;DHT22;5880;52.342;9.662;2022-09-27T18:38:56;13.60;70.00
11647;DHT22;5880;52.342;9.662;2022-09-27T18:41:25;13.60;70.10
11647;DHT22;5880;52.342;9.662;2022-09-27T18:43:54;13.60;70.00
11647;DHT22;5880;52.342;9.662;2022-09-27T18:46:31;13.50;70.00
11647;DHT22;5880;52.342;9.662;2022-09-27T18:49:00;13.50;70.00